createdAt,value
2022-09-01T00:44:31.853Z,19.70
2022-09-01T02:10:00.788Z,19.40
2022-09-01T03:33:49.803Z,19.10
2022-09-01T04:25:50.666Z,18.90
2022-09-01T04:30:13.116Z,18.90
2022-09-01T05:03:11.443Z,18.80
2022-09-01T05:06:56.685Z,18.70
2022-09-01T05:10:21.290Z,18.60
2022-09-01T05:14:21.492Z,18.50
2022-09-01T05:18:08.399Z,18.50
2022-09-01T05:22:26.306Z,18.50
2022-09-01T05:33:34.715Z,18.70
2022-09-01T05:46:05.676Z,18.80
2022-09-01T05:53:28.695Z,19.00
2022-09-01T06:26:14.664Z,19.30
2022-09-01T06:29:18.303Z,19.30
2022-09-01T06:32:19.485Z,19.30
2022-09-01T06:34:51.611Z,19.50
2022-09-01T06:37:31.466Z,19.40
2022-09-01T06:40:13.404Z,19.60
2022-09-01T06:43:00.855Z,19.70
2022-09-01T06:49:08.428Z,20.00
2022-09-01T06:52:10.841Z,20.20
2022-09-01T07:02:27.154Z,20.40
2022-09-01T07:08:19.585Z,20.70
2022-09-01T07:12:08.305Z,20.70
2022-09-01T07:16:51.929Z,20.80
2022-09-01T07:19:22.487Z,20.80
2022-09-01T07:22:35.786Z,21.00
2022-09-01T07:25:12.033Z,21.20
2022-09-01T07:27:52.180Z,21.30
2022-09-01T07:30:24.369Z,21.50
2022-09-01T07:32:55.733Z,21.70
2022-09-01T07:35:26.090Z,21.80
2022-09-01T07:43:55.518Z,22.20
2022-09-01T07:50:24.110Z,22.50
2022-09-01T07:52:37.345Z,22.50
2022-09-01T07:55:06.133Z,22.70
2022-09-01T07:57:37.227Z,22.80
2022-09-01T08:00:08.355Z,22.90
2022-09-01T08:02:43.911Z,22.70
2022-09-01T08:05:22.415Z,22.70
2022-09-01T08:07:52.022Z,22.70
2022-09-01T08:10:22.400Z,22.70
2022-09-01T08:12:58.705Z,22.50
2022-09-01T08:18:16.663Z,22.80
2022-09-01T08:20:47.473Z,22.90
2022-09-01T08:23:34.964Z,23.20
2022-09-01T08:26:07.984Z,23.50
2022-09-01T08:28:36.547Z,23.40
2022-09-01T08:31:11.254Z,23.60
2022-09-01T08:33:41.824Z,23.70
2022-09-01T08:36:14.326Z,23.70
2022-09-01T08:38:43.456Z,23.70
2022-09-01T08:41:17.928Z,23.80
2022-09-01T08:43:56.175Z,23.90
2022-09-01T08:46:28.635Z,23.90
2022-09-01T08:52:18.281Z,24.00
2022-09-01T08:54:50.461Z,23.90
2022-09-01T08:57:24.332Z,23.80
2022-09-01T09:00:23.259Z,23.80
2022-09-01T09:03:00.553Z,23.90
2022-09-01T09:05:40.155Z,24.10
2022-09-01T09:08:44.598Z,24.00
2022-09-01T09:11:30.112Z,24.00
2022-09-01T09:14:07.848Z,24.00
2022-09-01T09:16:40.904Z,24.00
2022-09-01T09:19:14.209Z,23.90
2022-09-01T09:21:44.652Z,23.90
2022-09-01T09:24:22.830Z,24.10
2022-09-01T09:26:51.940Z,24.20
2022-09-01T09:29:26.553Z,24.30
2022-09-01T09:32:06.702Z,24.50
2022-09-01T09:34:38.376Z,24.60
2022-09-01T09:37:33.879Z,24.40
2022-09-01T09:40:29.839Z,24.50
2022-09-01T09:43:10.641Z,24.40
2022-09-01T09:45:46.109Z,24.40
2022-09-01T09:48:30.980Z,24.50
2022-09-01T09:51:20.074Z,24.70
2022-09-01T09:53:48.956Z,24.70
2022-09-01T09:56:29.255Z,24.40
2022-09-01T09:58:57.797Z,24.20
2022-09-01T10:01:45.836Z,24.00
2022-09-01T10:04:38.682Z,24.00
2022-09-01T10:07:36.071Z,24.10
2022-09-01T10:10:58.470Z,24.40
2022-09-01T10:13:44.542Z,24.40
2022-09-01T10:16:26.885Z,24.30
2022-09-01T10:19:07.137Z,24.50
2022-09-01T10:21:45.823Z,24.60
2022-09-01T10:24:27.052Z,24.80
2022-09-01T10:27:05.230Z,24.80
2022-09-01T10:29:50.325Z,24.80
2022-09-01T10:32:36.511Z,24.90
2022-09-01T10:35:18.388Z,24.70
2022-09-01T10:37:58.090Z,24.60
2022-09-01T10:43:46.565Z,24.80
2022-09-01T10:46:59.917Z,24.90
2022-09-01T10:50:07.893Z,24.90
2022-09-01T10:53:09.601Z,24.90
2022-09-01T10:56:20.135Z,25.10
2022-09-01T10:59:57.271Z,24.90
2022-09-01T11:03:42.081Z,25.00
2022-09-01T11:07:33.488Z,25.10
2022-09-01T11:11:01.966Z,25.10
2022-09-01T11:13:56.318Z,25.30
2022-09-01T11:17:41.926Z,25.60
2022-09-01T11:20:20.576Z,25.80
2022-09-01T11:23:10.180Z,25.80
2022-09-01T11:25:47.154Z,25.70
2022-09-01T11:28:43.950Z,25.40
2022-09-01T11:31:45.439Z,25.30
2022-09-01T11:34:45.328Z,25.20
2022-09-01T11:37:27.905Z,25.30
2022-09-01T11:40:29.734Z,25.30
2022-09-01T11:43:22.296Z,25.40
2022-09-01T11:46:20.709Z,25.50
2022-09-01T11:48:59.875Z,25.50
2022-09-01T11:51:42.360Z,25.60
2022-09-01T11:54:47.157Z,25.90
2022-09-01T11:57:45.709Z,26.10
2022-09-01T12:00:37.298Z,26.30
2022-09-01T12:03:33.797Z,26.50
2022-09-01T12:06:18.162Z,26.50
2022-09-01T12:08:54.822Z,26.30
2022-09-01T12:11:25.680Z,26.40
2022-09-01T12:14:01.084Z,26.40
2022-09-01T12:16:30.766Z,26.10
2022-09-01T12:19:02.494Z,26.30
2022-09-01T12:21:33.180Z,26.60
2022-09-01T12:24:14.515Z,26.80
2022-09-01T12:26:43.483Z,27.10
2022-09-01T12:29:14.875Z,26.80
2022-09-01T12:31:45.505Z,26.70
2022-09-01T12:34:27.475Z,26.80
2022-09-01T12:37:09.302Z,26.80
2022-09-01T12:39:39.074Z,26.90
2022-09-01T12:42:11.274Z,26.80
2022-09-01T12:44:51.416Z,26.90
2022-09-01T12:47:50.826Z,27.10
2022-09-01T12:50:43.611Z,27.30
2022-09-01T12:53:31.725Z,27.40
2022-09-01T12:56:05.411Z,27.40
2022-09-01T12:58:41.759Z,27.50
2022-09-01T13:01:26.918Z,27.60
2022-09-01T13:04:16.479Z,27.80
2022-09-01T13:06:44.757Z,27.60
2022-09-01T13:09:12.948Z,27.60
2022-09-01T13:14:35.946Z,27.80
2022-09-01T13:17:13.852Z,28.00
2022-09-01T13:19:43.148Z,28.10
2022-09-01T13:22:11.689Z,28.20
2022-09-01T13:24:42.471Z,28.20
2022-09-01T13:27:20.874Z,28.30
2022-09-01T13:29:50.230Z,28.20
2022-09-01T13:32:21.973Z,28.40
2022-09-01T13:34:52.308Z,28.50
2022-09-01T13:37:20.937Z,28.40
2022-09-01T13:39:49.718Z,28.30
2022-09-01T13:42:18.729Z,28.40
2022-09-01T13:44:59.869Z,28.30
2022-09-01T13:47:33.279Z,28.20
2022-09-01T13:50:10.580Z,27.90
2022-09-01T13:52:44.536Z,27.80
2022-09-01T13:55:15.701Z,28.00
2022-09-01T13:57:43.849Z,28.20
2022-09-01T14:00:17.835Z,28.40
2022-09-01T14:02:50.198Z,28.50
2022-09-01T14:05:23.613Z,28.60
2022-09-01T14:07:57.500Z,28.40
2022-09-01T14:10:32.069Z,28.50
2022-09-01T14:13:01.416Z,28.60
2022-09-01T14:15:30.261Z,28.70
2022-09-01T14:18:02.801Z,28.70
2022-09-01T14:20:36.817Z,28.70
2022-09-01T14:23:06.780Z,28.90
2022-09-01T14:25:40.139Z,28.90
2022-09-01T14:28:08.427Z,29.00
2022-09-01T14:30:39.542Z,29.00
2022-09-01T14:33:09.691Z,29.00
2022-09-01T14:35:43.128Z,29.10
2022-09-01T14:38:13.833Z,29.20
2022-09-01T14:40:43.299Z,28.90
2022-09-01T14:43:14.499Z,28.70
2022-09-01T14:46:06.230Z,28.60
2022-09-01T14:48:37.523Z,28.70
2022-09-01T14:51:06.908Z,28.50
2022-09-01T14:53:35.496Z,28.60
2022-09-01T14:56:05.207Z,28.40
2022-09-01T14:58:33.605Z,28.40
2022-09-01T15:01:17.449Z,28.40
2022-09-01T15:03:52.292Z,28.40
2022-09-01T15:06:25.709Z,28.20
2022-09-01T15:08:56.767Z,28.10
2022-09-01T15:11:26.700Z,28.20
2022-09-01T15:13:55.582Z,28.10
2022-09-01T15:16:26.275Z,28.30
2022-09-01T15:18:59.481Z,28.30
2022-09-01T15:21:32.163Z,28.60
2022-09-01T15:24:02.628Z,28.60
2022-09-01T15:26:31.887Z,28.50
2022-09-01T15:29:02.093Z,28.40
2022-09-01T15:31:33.494Z,28.40
2022-09-01T15:34:05.687Z,28.40
2022-09-01T15:36:39.784Z,28.20
2022-09-01T15:39:14.764Z,27.90
2022-09-01T15:41:48.380Z,27.70
2022-09-01T15:44:19.790Z,27.70
2022-09-01T15:46:48.431Z,27.70
2022-09-01T15:49:18.644Z,27.50
2022-09-01T15:51:56.054Z,27.40
2022-09-01T15:54:30.523Z,27.40
2022-09-01T15:57:11.817Z,27.50
2022-09-01T15:59:43.442Z,27.70
2022-09-01T16:02:33.532Z,27.80
2022-09-01T16:06:31.779Z,27.70
2022-09-01T16:10:21.015Z,27.80
2022-09-01T16:13:16.295Z,27.90
2022-09-01T16:16:03.407Z,28.00
2022-09-01T16:19:19.350Z,28.10
2022-09-01T16:22:00.094Z,27.90
2022-09-01T16:24:53.900Z,27.70
2022-09-01T16:27:38.535Z,27.30
2022-09-01T16:30:20.509Z,26.80
2022-09-01T16:32:58.894Z,26.80
2022-09-01T16:35:44.898Z,26.70
2022-09-01T16:38:30.857Z,26.60
2022-09-01T16:41:07.936Z,26.70
2022-09-01T16:43:44.700Z,26.70
2022-09-01T16:46:20.393Z,26.80
2022-09-01T16:48:57.432Z,26.60
2022-09-01T16:51:32.838Z,26.60
2022-09-01T16:54:31.788Z,26.80
2022-09-01T16:57:21.123Z,27.00
2022-09-01T16:59:55.899Z,27.10
2022-09-01T17:02:54.311Z,26.90
2022-09-01T17:05:30.361Z,26.90
2022-09-01T17:08:19.701Z,26.90
2022-09-01T17:10:56.365Z,27.00
2022-09-01T17:13:38.735Z,27.10
2022-09-01T17:17:13.012Z,27.20
2022-09-01T17:19:57.878Z,27.10
2022-09-01T17:25:47.886Z,26.20
2022-09-01T17:28:41.513Z,26.10
2022-09-01T17:31:16.323Z,25.80
2022-09-01T17:34:06.456Z,25.70
2022-09-01T17:36:50.406Z,25.80
2022-09-01T17:39:35.783Z,25.80
2022-09-01T17:42:10.512Z,25.80
2022-09-01T17:49:09.004Z,25.90
2022-09-01T17:51:48.890Z,25.90
2022-09-01T18:01:08.893Z,25.50
2022-09-01T18:07:05.665Z,25.60
2022-09-01T18:10:29.994Z,25.40
2022-09-01T18:23:12.634Z,24.90
2022-09-01T18:33:49.229Z,24.70
2022-09-01T18:43:32.551Z,24.40
2022-09-01T18:45:27.258Z,24.30
2022-09-01T18:48:23.598Z,24.20
2022-09-01T18:51:06.326Z,24.20
2022-09-01T18:54:00.858Z,24.20
2022-09-01T19:01:19.662Z,24.30
2022-09-01T19:04:32.624Z,24.30
2022-09-01T19:07:30.872Z,24.20
2022-09-01T19:10:23.148Z,24.10
2022-09-01T19:16:51.726Z,24.00
2022-09-01T19:20:16.515Z,24.00
2022-09-01T19:35:58.246Z,23.70
2022-09-01T19:39:35.149Z,23.70
2022-09-01T19:42:32.367Z,23.60
2022-09-01T19:52:35.839Z,23.60
2022-09-01T19:55:33.986Z,23.60
2022-09-01T19:58:07.542Z,23.40
2022-09-01T20:00:55.802Z,23.30
2022-09-01T20:03:41.177Z,23.20
2022-09-01T20:06:25.639Z,23.10
2022-09-01T20:09:12.413Z,23.20
2022-09-01T20:12:02.469Z,23.10
2022-09-01T20:15:11.954Z,23.10
2022-09-01T20:18:29.498Z,23.10
2022-09-01T20:22:06.174Z,23.10
2022-09-01T20:38:07.833Z,22.60
2022-09-01T20:41:39.266Z,22.70
2022-09-01T20:44:58.105Z,22.70
